createdAt,value
2023-03-03T00:01:21.815Z,6.93
2023-03-03T00:03:49.936Z,7.30
2023-03-03T00:06:18.132Z,6.00
2023-03-03T00:08:46.544Z,7.70
2023-03-03T00:11:15.146Z,6.78
2023-03-03T00:13:48.197Z,5.65
2023-03-03T00:16:23.701Z,6.85
2023-03-03T00:18:52.568Z,6.95
2023-03-03T00:21:30.650Z,4.90
2023-03-03T00:24:18.976Z,5.75
2023-03-03T00:26:48.816Z,6.03
2023-03-03T00:29:32.555Z,5.60
2023-03-03T00:32:19.206Z,5.57
2023-03-03T00:34:47.396Z,5.53
2023-03-03T00:37:29.217Z,6.07
2023-03-03T00:40:16.251Z,5.28
2023-03-03T00:42:48.212Z,5.22
2023-03-03T00:45:27.460Z,5.68
2023-03-03T00:47:57.635Z,5.35
2023-03-03T00:50:34.869Z,5.72
2023-03-03T00:53:07.971Z,5.57
2023-03-03T00:55:37.286Z,4.97
2023-03-03T00:58:05.885Z,5.05
2023-03-03T01:00:34.662Z,4.18
2023-03-03T01:03:06.008Z,4.70
2023-03-03T01:05:35.188Z,4.30
2023-03-03T01:08:04.397Z,4.93
2023-03-03T01:10:37.398Z,3.65
2023-03-03T01:13:06.655Z,4.93
2023-03-03T01:15:35.157Z,5.40
2023-03-03T01:18:05.187Z,5.00
2023-03-03T01:20:33.429Z,5.18
2023-03-03T01:23:01.600Z,4.70
2023-03-03T01:25:29.977Z,5.03
2023-03-03T01:27:58.608Z,4.32
2023-03-03T01:30:27.764Z,5.25
2023-03-03T01:32:56.502Z,5.13
2023-03-03T01:35:26.114Z,4.68
2023-03-03T01:37:54.598Z,6.07
2023-03-03T01:40:25.062Z,5.45
2023-03-03T01:42:53.445Z,4.75
2023-03-03T01:45:23.799Z,5.30
2023-03-03T01:47:58.990Z,4.63
2023-03-03T01:50:37.032Z,4.60
2023-03-03T01:53:07.879Z,5.50
2023-03-03T01:55:40.677Z,5.18
2023-03-03T01:58:12.556Z,5.80
2023-03-03T02:00:43.432Z,5.25
2023-03-03T02:03:12.300Z,4.55
2023-03-03T02:05:43.189Z,5.35
2023-03-03T02:08:15.092Z,6.03
2023-03-03T02:10:44.754Z,4.85
2023-03-03T02:13:13.935Z,5.60
2023-03-03T02:15:42.209Z,4.72
2023-03-03T02:18:14.286Z,4.93
2023-03-03T02:20:55.068Z,4.53
2023-03-03T02:23:34.356Z,5.05
2023-03-03T02:26:10.982Z,5.18
2023-03-03T02:28:40.112Z,5.50
2023-03-03T02:31:13.575Z,5.95
2023-03-03T02:33:42.979Z,5.03
2023-03-03T02:36:14.971Z,5.32
2023-03-03T02:38:48.618Z,5.68
2023-03-03T02:41:28.841Z,4.47
2023-03-03T02:44:01.481Z,4.68
2023-03-03T02:46:30.667Z,4.97
2023-03-03T02:48:59.057Z,5.30
2023-03-03T02:51:27.726Z,6.25
2023-03-03T02:53:55.824Z,5.13
2023-03-03T02:56:25.546Z,5.05
2023-03-03T02:58:53.810Z,6.25
2023-03-03T03:01:22.461Z,4.63
2023-03-03T03:03:50.645Z,5.40
2023-03-03T03:06:18.997Z,4.75
2023-03-03T03:08:47.304Z,6.20
2023-03-03T03:11:15.817Z,4.72
2023-03-03T03:13:45.303Z,6.10
2023-03-03T03:16:13.398Z,5.63
2023-03-03T03:18:41.929Z,5.65
2023-03-03T03:21:12.267Z,5.88
2023-03-03T03:23:41.638Z,6.22
2023-03-03T03:26:10.008Z,5.28
2023-03-03T03:28:38.346Z,5.47
2023-03-03T03:31:09.336Z,6.45
2023-03-03T03:33:38.299Z,5.57
2023-03-03T03:36:07.406Z,5.95
2023-03-03T03:38:37.614Z,5.85
2023-03-03T03:41:07.345Z,5.55
2023-03-03T03:43:36.029Z,6.05
2023-03-03T03:46:04.298Z,6.32
2023-03-03T03:48:34.371Z,6.22
2023-03-03T03:51:02.569Z,7.03
2023-03-03T03:53:31.052Z,6.03
2023-03-03T03:55:59.248Z,6.55
2023-03-03T03:58:27.591Z,4.95
2023-03-03T04:00:57.074Z,6.60
2023-03-03T04:03:25.308Z,6.28
2023-03-03T04:05:55.604Z,6.82
2023-03-03T04:08:23.728Z,5.55
2023-03-03T04:10:51.799Z,6.25
2023-03-03T04:13:19.923Z,6.18
2023-03-03T04:15:48.471Z,7.72
2023-03-03T04:18:16.902Z,6.85
2023-03-03T04:20:45.024Z,5.53
2023-03-03T04:23:15.111Z,6.20
2023-03-03T04:25:43.188Z,6.30
2023-03-03T04:28:11.516Z,6.63
2023-03-03T04:30:39.867Z,6.38
2023-03-03T04:33:08.130Z,0.63
2023-03-03T04:35:36.587Z,7.05
2023-03-03T04:38:05.057Z,7.70
2023-03-03T04:40:34.648Z,5.50
2023-03-03T04:43:03.168Z,6.13
2023-03-03T04:45:31.468Z,6.43
2023-03-03T04:47:59.620Z,6.35
2023-03-03T04:50:27.916Z,6.10
2023-03-03T04:52:56.066Z,6.47
2023-03-03T04:55:24.453Z,6.35
2023-03-03T04:57:53.922Z,6.47
2023-03-03T05:00:22.753Z,6.82
2023-03-03T05:02:51.354Z,6.28
2023-03-03T05:05:19.685Z,6.88
2023-03-03T05:07:47.853Z,6.35
2023-03-03T05:10:16.249Z,6.15
2023-03-03T05:12:45.568Z,6.50
2023-03-03T05:15:15.050Z,5.93
2023-03-03T05:17:43.370Z,6.47
2023-03-03T05:20:13.609Z,6.47
2023-03-03T05:22:41.741Z,5.88
2023-03-03T05:25:12.835Z,7.22
2023-03-03T05:27:40.944Z,6.32
2023-03-03T05:30:10.451Z,5.53
2023-03-03T05:32:40.218Z,6.43
2023-03-03T05:35:08.949Z,6.65
2023-03-03T05:37:37.050Z,5.65
2023-03-03T05:40:05.857Z,7.07
2023-03-03T05:42:34.025Z,6.15
2023-03-03T05:45:02.315Z,7.18
2023-03-03T05:47:31.225Z,6.50
2023-03-03T05:50:01.067Z,6.35
2023-03-03T05:52:29.301Z,6.60
2023-03-03T05:54:57.441Z,7.45
2023-03-03T05:57:25.544Z,6.57
2023-03-03T05:59:53.619Z,6.50
2023-03-03T06:02:21.776Z,6.35
2023-03-03T06:04:49.839Z,6.00
2023-03-03T06:07:19.313Z,7.43
2023-03-03T06:09:47.704Z,7.10
2023-03-03T06:12:15.807Z,6.88
2023-03-03T06:14:44.117Z,7.03
2023-03-03T06:17:12.688Z,7.10
2023-03-03T06:19:41.994Z,6.97
2023-03-03T06:22:10.492Z,6.50
2023-03-03T06:24:40.030Z,7.03
2023-03-03T06:27:08.393Z,8.07
2023-03-03T06:29:36.543Z,7.28
2023-03-03T06:32:05.030Z,6.43
2023-03-03T06:34:33.568Z,6.85
2023-03-03T06:37:01.676Z,6.97
2023-03-03T06:39:29.993Z,7.03
2023-03-03T06:41:59.447Z,7.20
2023-03-03T06:44:28.994Z,6.35
2023-03-03T06:46:58.839Z,7.00
2023-03-03T06:49:27.009Z,6.35
2023-03-03T06:51:55.501Z,5.97
2023-03-03T06:54:30.893Z,6.80
2023-03-03T06:57:05.972Z,7.70
2023-03-03T06:59:34.077Z,7.45
2023-03-03T07:02:02.184Z,7.30
2023-03-03T07:04:33.574Z,6.95
2023-03-03T07:07:09.417Z,5.72
2023-03-03T07:09:37.534Z,7.65
2023-03-03T07:12:14.523Z,5.80
2023-03-03T07:14:44.565Z,5.57
2023-03-03T07:17:17.345Z,6.55
2023-03-03T07:19:45.908Z,6.72
2023-03-03T07:22:17.233Z,7.13
2023-03-03T07:24:47.150Z,7.38
2023-03-03T07:27:23.972Z,5.57
2023-03-03T07:29:54.388Z,7.97
2023-03-03T07:32:29.469Z,6.22
2023-03-03T07:34:58.300Z,6.47
2023-03-03T07:37:38.546Z,5.97
2023-03-03T07:40:28.811Z,7.15
2023-03-03T07:42:58.647Z,6.47
2023-03-03T07:45:30.553Z,6.78
2023-03-03T07:48:03.857Z,5.82
2023-03-03T07:50:32.662Z,7.30
2023-03-03T07:53:02.365Z,6.68
2023-03-03T07:55:36.367Z,7.15
2023-03-03T07:58:23.660Z,6.13
2023-03-03T08:01:27.811Z,5.50
2023-03-03T08:03:56.875Z,5.80
2023-03-03T08:06:40.399Z,6.78
2023-03-03T08:09:40.892Z,7.20
2023-03-03T08:12:35.887Z,6.22
2023-03-03T08:15:25.850Z,6.07
2023-03-03T08:17:57.039Z,6.28
2023-03-03T08:20:47.661Z,6.43
2023-03-03T08:23:16.962Z,5.93
2023-03-03T08:25:45.673Z,5.55
2023-03-03T08:28:14.120Z,6.30
2023-03-03T08:30:44.156Z,5.93
2023-03-03T08:33:13.199Z,6.78
2023-03-03T08:35:42.196Z,5.80
2023-03-03T08:38:11.059Z,7.13
2023-03-03T08:40:39.583Z,6.20
2023-03-03T08:43:08.220Z,7.22
2023-03-03T08:45:37.380Z,7.15
2023-03-03T08:48:07.778Z,6.57
2023-03-03T08:50:36.249Z,6.53
2023-03-03T08:53:04.456Z,6.85
2023-03-03T08:55:33.092Z,6.25
2023-03-03T08:58:01.253Z,6.03
2023-03-03T09:00:30.049Z,7.10
2023-03-03T09:02:58.227Z,7.05
2023-03-03T09:05:28.614Z,6.00
2023-03-03T09:07:57.264Z,6.05
2023-03-03T09:10:31.179Z,4.93
2023-03-03T09:13:03.618Z,6.68
2023-03-03T09:15:34.176Z,6.07
2023-03-03T09:18:14.972Z,6.80
2023-03-03T09:20:45.731Z,5.57
2023-03-03T09:23:42.646Z,6.78
2023-03-03T09:26:27.118Z,6.22
2023-03-03T09:28:56.610Z,7.43
2023-03-03T09:31:28.637Z,6.57
2023-03-03T09:33:59.376Z,6.97
2023-03-03T09:36:31.981Z,5.53
2023-03-03T09:39:01.078Z,5.95
2023-03-03T09:41:58.953Z,6.85
2023-03-03T09:44:52.148Z,6.20
2023-03-03T09:47:36.343Z,6.85
2023-03-03T09:50:19.989Z,7.10
2023-03-03T09:52:55.257Z,6.15
2023-03-03T09:55:37.633Z,5.40
2023-03-03T09:58:23.175Z,5.75
2023-03-03T10:01:02.084Z,5.72
2023-03-03T10:03:56.749Z,6.00
2023-03-03T10:06:30.489Z,5.38
2023-03-03T10:09:16.665Z,5.05
2023-03-03T10:11:51.966Z,5.00
2023-03-03T10:14:50.505Z,5.35
2023-03-03T10:17:42.838Z,5.60
2023-03-03T10:20:49.446Z,5.28
2023-03-03T10:23:23.362Z,4.90
2023-03-03T10:26:00.937Z,4.88
2023-03-03T10:28:53.781Z,5.53
2023-03-03T10:31:33.410Z,6.07
2023-03-03T10:34:12.747Z,5.50
2023-03-03T10:36:50.995Z,6.50
2023-03-03T10:39:48.832Z,6.72
2023-03-03T10:42:37.225Z,7.30
2023-03-03T10:45:37.936Z,6.78
2023-03-03T10:48:46.639Z,5.95
2023-03-03T10:51:28.217Z,6.32
2023-03-03T10:54:08.339Z,6.47
2023-03-03T10:56:53.432Z,7.38
2023-03-03T10:59:42.028Z,5.88
2023-03-03T11:02:23.931Z,6.45
2023-03-03T11:05:07.167Z,6.20
2023-03-03T11:07:41.595Z,6.10
2023-03-03T11:10:25.812Z,6.60
2023-03-03T11:13:11.345Z,6.25
2023-03-03T11:16:15.964Z,5.43
2023-03-03T11:19:02.359Z,6.38
2023-03-03T11:21:36.295Z,6.53
2023-03-03T11:24:28.996Z,7.00
2023-03-03T11:27:13.803Z,6.57
2023-03-03T11:29:57.480Z,6.85
2023-03-03T11:32:37.333Z,6.93
2023-03-03T11:35:20.313Z,6.95
2023-03-03T11:37:57.342Z,5.78
2023-03-03T11:40:28.350Z,5.78
2023-03-03T11:43:04.773Z,6.00
2023-03-03T11:45:40.910Z,5.50
2023-03-03T11:48:19.290Z,5.60
2023-03-03T11:50:56.482Z,5.30
2023-03-03T11:53:43.954Z,5.40
2023-03-03T11:56:22.043Z,6.40
2023-03-03T11:58:59.468Z,5.95
2023-03-03T12:01:33.470Z,6.05
2023-03-03T12:04:05.601Z,3.35
2023-03-03T12:06:42.018Z,5.88
2023-03-03T12:09:32.110Z,6.15
2023-03-03T12:12:07.229Z,5.90
2023-03-03T12:14:55.312Z,6.03
2023-03-03T12:17:50.648Z,4.25
2023-03-03T12:20:33.492Z,5.60
2023-03-03T12:26:03.584Z,5.22
2023-03-03T12:28:37.780Z,6.15
2023-03-03T12:31:24.939Z,5.82
2023-03-03T12:33:57.009Z,5.78
2023-03-03T12:37:05.558Z,6.20
2023-03-03T12:39:43.839Z,5.18
2023-03-03T12:42:19.060Z,6.05
2023-03-03T12:44:55.467Z,6.15
2023-03-03T12:47:30.394Z,5.93
2023-03-03T12:50:14.516Z,5.80
2023-03-03T12:52:51.373Z,4.72
2023-03-03T12:55:28.158Z,6.30
2023-03-03T12:58:04.093Z,5.57
2023-03-03T13:00:50.447Z,5.68
2023-03-03T13:03:32.128Z,5.50
2023-03-03T13:06:08.458Z,5.32
2023-03-03T13:08:51.153Z,5.45
2023-03-03T13:11:34.863Z,6.30
2023-03-03T13:14:14.819Z,5.53
2023-03-03T13:16:50.795Z,5.10
2023-03-03T13:19:25.234Z,5.60
2023-03-03T13:21:58.465Z,6.38
2023-03-03T13:24:34.590Z,5.47
2023-03-03T13:27:09.193Z,6.25
2023-03-03T13:29:42.787Z,5.28
2023-03-03T13:32:15.889Z,6.00
2023-03-03T13:34:52.682Z,6.25
2023-03-03T13:37:23.649Z,5.70
2023-03-03T13:40:01.244Z,5.28
2023-03-03T13:42:37.607Z,5.95
2023-03-03T13:45:17.745Z,1.80
2023-03-03T13:47:54.555Z,5.40
2023-03-03T13:50:28.896Z,6.38
2023-03-03T13:53:11.161Z,7.22
2023-03-03T13:55:44.622Z,5.78
2023-03-03T13:58:23.910Z,6.05
2023-03-03T14:01:02.858Z,6.13
2023-03-03T14:03:59.872Z,6.10
2023-03-03T14:06:29.745Z,5.13
2023-03-03T14:09:10.623Z,6.07
2023-03-03T14:11:48.027Z,6.68
2023-03-03T14:14:38.584Z,6.18
2023-03-03T14:17:14.265Z,4.97
2023-03-03T14:19:45.790Z,6.35
2023-03-03T14:22:24.135Z,6.65
2023-03-03T14:25:03.323Z,5.85
2023-03-03T14:27:40.243Z,5.38
2023-03-03T14:30:35.072Z,6.43
2023-03-03T14:33:22.463Z,6.30
2023-03-03T14:36:02.357Z,5.30
2023-03-03T14:38:49.372Z,4.50
2023-03-03T14:41:20.922Z,7.40
2023-03-03T14:44:01.653Z,4.80
2023-03-03T14:46:41.762Z,6.80
2023-03-03T14:49:16.348Z,6.68
2023-03-03T14:51:47.344Z,7.35
2023-03-03T14:54:22.492Z,4.47
2023-03-03T14:57:00.631Z,7.70
2023-03-03T14:59:31.840Z,7.30
2023-03-03T15:02:38.525Z,7.50
2023-03-03T15:05:22.711Z,8.23
2023-03-03T15:07:55.029Z,7.53
2023-03-03T15:10:35.646Z,8.02
2023-03-03T15:13:36.521Z,7.75
2023-03-03T15:16:17.842Z,7.40
2023-03-03T15:19:11.648Z,7.93
2023-03-03T15:21:45.026Z,9.07
2023-03-03T15:24:20.222Z,7.70
2023-03-03T15:26:53.833Z,7.20
2023-03-03T15:29:28.587Z,7.35
2023-03-03T15:32:03.414Z,8.25
2023-03-03T15:34:41.384Z,8.43
2023-03-03T15:37:26.076Z,7.88
2023-03-03T15:40:04.062Z,8.27
2023-03-03T15:42:39.674Z,7.75
2023-03-03T15:45:18.219Z,8.68
2023-03-03T15:48:13.995Z,9.70
2023-03-03T15:50:51.655Z,9.93
2023-03-03T15:53:36.990Z,8.85
2023-03-03T15:56:17.245Z,9.27
2023-03-03T15:59:16.885Z,9.32
2023-03-03T16:01:54.645Z,8.77
2023-03-03T16:04:27.236Z,10.07
2023-03-03T16:07:01.760Z,9.35
2023-03-03T16:09:41.279Z,8.98
2023-03-03T16:12:18.538Z,9.00
2023-03-03T16:15:08.245Z,8.50
2023-03-03T16:17:43.936Z,7.53
2023-03-03T16:20:22.551Z,7.18
2023-03-03T16:23:10.265Z,8.32
2023-03-03T16:25:52.111Z,8.32
2023-03-03T16:28:24.218Z,7.68
2023-03-03T16:30:59.432Z,9.38
2023-03-03T16:33:36.286Z,7.97
2023-03-03T16:36:14.076Z,8.02
2023-03-03T16:38:46.240Z,8.48
2023-03-03T16:41:20.460Z,8.20
2023-03-03T16:44:00.195Z,8.75
2023-03-03T16:46:35.065Z,8.15
2023-03-03T16:49:10.058Z,8.68
2023-03-03T16:51:49.876Z,8.20
2023-03-03T16:54:28.150Z,8.13
2023-03-03T16:57:10.353Z,8.15
2023-03-03T16:59:48.789Z,7.63
2023-03-03T17:02:53.720Z,7.68
2023-03-03T17:05:30.641Z,9.13
2023-03-03T17:08:19.915Z,8.10
2023-03-03T17:10:53.236Z,8.15
2023-03-03T17:13:38.752Z,8.85
2023-03-03T17:16:15.193Z,8.73
2023-03-03T17:18:57.908Z,8.70
2023-03-03T17:21:35.115Z,7.78
2023-03-03T17:24:18.790Z,8.52
2023-03-03T17:27:08.372Z,8.90
2023-03-03T17:29:55.380Z,8.30
2023-03-03T17:32:45.737Z,8.45
2023-03-03T17:35:28.243Z,8.18
2023-03-03T17:38:06.625Z,8.15
2023-03-03T17:41:00.890Z,7.78
2023-03-03T17:43:38.670Z,7.07
2023-03-03T17:46:16.681Z,8.63
2023-03-03T17:49:08.711Z,9.75
2023-03-03T17:52:11.067Z,8.48
2023-03-03T17:54:55.672Z,9.73
2023-03-03T17:57:42.846Z,8.38
2023-03-03T18:00:29.598Z,9.82
2023-03-03T18:03:35.617Z,10.10
2023-03-03T18:06:25.369Z,10.88
2023-03-03T18:09:14.654Z,11.27
2023-03-03T18:11:56.406Z,11.73
2023-03-03T18:14:52.132Z,11.20
2023-03-03T18:17:43.769Z,10.80
2023-03-03T18:20:42.296Z,9.52
2023-03-03T18:23:34.091Z,12.02
2023-03-03T18:26:03.709Z,13.13
2023-03-03T18:28:47.419Z,12.52
2023-03-03T18:31:27.233Z,12.82
2023-03-03T18:34:05.412Z,10.95
2023-03-03T18:36:39.494Z,9.40
2023-03-03T18:39:13.700Z,11.13
2023-03-03T18:42:09.492Z,2.47
2023-03-03T18:44:37.784Z,11.38
2023-03-03T18:47:07.606Z,10.65
2023-03-03T18:50:04.600Z,11.70
2023-03-03T18:52:34.885Z,11.93
2023-03-03T18:55:20.176Z,12.05
2023-03-03T18:58:29.856Z,13.18
2023-03-03T19:01:00.886Z,12.13
2023-03-03T19:03:35.276Z,13.13
2023-03-03T19:06:04.565Z,11.88
2023-03-03T19:08:51.289Z,14.38
2023-03-03T19:11:37.609Z,13.65
2023-03-03T19:14:32.668Z,13.02
2023-03-03T19:17:21.760Z,12.27
2023-03-03T19:20:06.918Z,15.38
2023-03-03T19:22:46.020Z,14.05
2023-03-03T19:25:24.643Z,14.32
2023-03-03T19:28:19.754Z,14.05
2023-03-03T19:30:56.273Z,11.15
2023-03-03T19:33:43.793Z,13.20
2023-03-03T19:36:29.601Z,13.38
2023-03-03T19:39:16.143Z,10.32
2023-03-03T19:42:05.070Z,10.30
2023-03-03T19:44:50.022Z,13.15
2023-03-03T19:47:28.632Z,10.18
2023-03-03T19:50:08.812Z,13.45
2023-03-03T19:52:44.668Z,12.90
2023-03-03T19:55:25.276Z,11.40
2023-03-03T19:58:05.546Z,9.57
2023-03-03T20:00:41.541Z,12.20
2023-03-03T20:03:58.436Z,11.48
2023-03-03T20:06:48.275Z,9.73
2023-03-03T20:09:27.834Z,12.20
2023-03-03T20:12:08.043Z,11.85
2023-03-03T20:14:46.246Z,11.15
2023-03-03T20:17:38.729Z,11.55
2023-03-03T20:20:24.151Z,12.30
2023-03-03T20:22:57.808Z,9.23
2023-03-03T20:25:35.578Z,8.60
2023-03-03T20:28:09.720Z,7.45
2023-03-03T20:30:54.578Z,10.68
2023-03-03T20:33:45.154Z,11.35
2023-03-03T20:36:25.210Z,11.52
2023-03-03T20:39:04.614Z,8.93
2023-03-03T20:41:51.158Z,10.18
2023-03-03T20:44:30.545Z,10.10
2023-03-03T20:47:05.553Z,9.52
2023-03-03T20:49:47.793Z,11.05
2023-03-03T20:52:24.823Z,11.13
2023-03-03T20:55:00.948Z,7.82
2023-03-03T20:57:39.057Z,10.48
2023-03-03T21:00:15.206Z,9.35
2023-03-03T21:02:50.730Z,9.75
2023-03-03T21:05:22.678Z,8.82
2023-03-03T21:07:55.860Z,9.93
2023-03-03T21:10:25.316Z,9.77
2023-03-03T21:12:56.877Z,5.38
2023-03-03T21:15:29.333Z,7.97
2023-03-03T21:17:59.562Z,8.98
2023-03-03T21:20:30.500Z,8.30
2023-03-03T21:22:59.737Z,7.20
2023-03-03T21:25:53.465Z,9.57
2023-03-03T21:28:26.178Z,7.70
2023-03-03T21:31:22.766Z,8.00
2023-03-03T21:33:53.697Z,8.73
2023-03-03T21:36:24.494Z,8.88
2023-03-03T21:38:54.534Z,8.00
2023-03-03T21:41:22.904Z,8.82
2023-03-03T21:43:53.964Z,8.40
2023-03-03T21:46:23.585Z,4.22
2023-03-03T21:48:52.292Z,5.68
2023-03-03T21:51:21.862Z,7.05
2023-03-03T21:53:49.971Z,7.93
2023-03-03T21:56:18.098Z,7.57
2023-03-03T21:58:46.329Z,7.45
2023-03-03T22:01:16.104Z,5.05
2023-03-03T22:03:45.928Z,7.18
2023-03-03T22:06:14.012Z,5.30
2023-03-03T22:08:42.408Z,5.00
2023-03-03T22:11:10.494Z,6.57
2023-03-03T22:13:40.051Z,6.90
2023-03-03T22:16:09.077Z,7.70
2023-03-03T22:18:38.582Z,6.03
2023-03-03T22:21:07.354Z,3.40
2023-03-03T22:23:35.872Z,3.92
2023-03-03T22:26:04.060Z,4.38
2023-03-03T22:28:32.184Z,4.97
2023-03-03T22:31:00.688Z,6.10
2023-03-03T22:33:28.814Z,5.05
2023-03-03T22:35:58.656Z,6.30
2023-03-03T22:38:26.943Z,5.60
2023-03-03T22:40:56.155Z,5.65
2023-03-03T22:43:25.695Z,5.38
2023-03-03T22:45:54.138Z,4.55
2023-03-03T22:48:23.145Z,5.57
2023-03-03T22:50:51.619Z,3.85
2023-03-03T22:53:22.056Z,4.43
2023-03-03T22:55:50.227Z,5.90
2023-03-03T22:58:20.122Z,5.93
2023-03-03T23:00:48.925Z,4.43
2023-03-03T23:03:17.395Z,4.57
2023-03-03T23:05:45.620Z,3.40
2023-03-03T23:08:16.326Z,4.57
2023-03-03T23:10:46.747Z,4.97
2023-03-03T23:13:15.483Z,4.53
2023-03-03T23:15:44.067Z,5.78
2023-03-03T23:18:12.206Z,4.72
2023-03-03T23:20:42.658Z,4.07
2023-03-03T23:23:11.203Z,3.85
2023-03-03T23:25:39.612Z,4.57
2023-03-03T23:28:09.282Z,4.10
2023-03-03T23:30:37.680Z,3.75
2023-03-03T23:33:05.848Z,3.58
2023-03-03T23:35:34.151Z,4.28
2023-03-03T23:38:02.387Z,2.50
2023-03-03T23:40:30.537Z,2.28
2023-03-03T23:42:58.956Z,3.70
2023-03-03T23:45:28.999Z,3.30
2023-03-03T23:47:57.152Z,2.63
2023-03-03T23:50:25.265Z,3.30
2023-03-03T23:52:53.492Z,3.30
2023-03-03T23:55:21.843Z,3.45
2023-03-03T23:57:49.925Z,3.20
